Time;durP1;ratioP1;P1;durP2;ratioP2;P2;SDS_P1;SDS_P2;PMS_P1;PMS_P2;Temp;Humidity;BMP_temperature;BMP_pressure;BME280_temperature;BME280_humidity;BME280_pressure;Samples;Min_cycle;Max_cycle;Signal;HPM_P1;HPM_P2
2024/01/25 00:01:57;;;;;;;1.20;0.80;;;;;;;8.93;82.44;96406.84;4362429;32;20197;-69
2024/01/25 00:04:22;;;;;;;1.77;1.20;;;;;;;8.82;82.94;96399.88;4349633;32;20197;-69
2024/01/25 00:06:48;;;;;;;1.10;1.00;;;;;;;8.81;83.25;96401.72;4348835;32;20305;-69
2024/01/25 00:09:13;;;;;;;1.27;1.17;;;;;;;8.75;83.30;96400.09;4361513;32;20201;-69
2024/01/25 00:11:38;;;;;;;1.10;1.00;;;;;;;8.61;84.26;96393.66;4362992;32;20246;-69
2024/01/25 00:14:04;;;;;;;2.63;0.77;;;;;;;8.70;84.39;96404.56;4352900;32;20189;-69
2024/01/25 00:16:30;;;;;;;0.70;0.70;;;;;;;8.67;85.75;96387.34;4358301;32;20189;-68
2024/01/25 00:18:55;;;;;;;2.20;1.37;;;;;;;8.76;85.31;96399.03;4368181;32;20244;-69
2024/01/25 00:21:20;;;;;;;2.57;1.17;;;;;;;8.82;85.14;96405.16;4351825;32;20185;-69
2024/01/25 00:23:46;;;;;;;4.80;2.10;;;;;;;8.76;85.79;96411.47;4354517;32;20200;-69
2024/01/25 00:26:12;;;;;;;0.40;0.40;;;;;;;8.74;85.96;96402.97;4366828;32;20193;-69
2024/01/25 00:28:37;;;;;;;0.87;0.87;;;;;;;8.69;86.80;96406.41;4368925;32;20207;-68
2024/01/25 00:31:03;;;;;;;2.10;0.77;;;;;;;8.89;86.21;96403.09;4363511;32;20332;-68
2024/01/25 00:33:28;;;;;;;1.50;0.80;;;;;;;8.68;87.23;96410.09;4363593;32;20208;-68
2024/01/25 00:35:54;;;;;;;2.70;1.00;;;;;;;8.71;87.45;96414.91;4354440;32;20242;-69
2024/01/25 00:38:20;;;;;;;0.70;0.70;;;;;;;8.67;87.23;96410.37;4364890;32;20196;-69
2024/01/25 00:40:45;;;;;;;5.57;0.87;;;;;;;8.72;87.37;96413.84;4358826;32;20244;-69
2024/01/25 00:43:11;;;;;;;2.30;0.97;;;;;;;8.67;87.85;96415.66;4370245;32;20219;-69
2024/01/25 00:45:36;;;;;;;5.53;1.40;;;;;;;8.70;87.55;96408.00;4364922;32;20286;-69
2024/01/25 00:48:02;;;;;;;1.07;0.63;;;;;;;8.75;87.01;96410.66;4367516;32;20193;-69
2024/01/25 00:50:28;;;;;;;1.13;1.03;;;;;;;8.92;86.37;96415.81;4369171;32;20215;-69
2024/01/25 00:52:54;;;;;;;0.70;0.70;;;;;;;8.83;86.64;96409.41;4361273;32;20224;-69
2024/01/25 00:55:19;;;;;;;4.37;0.80;;;;;;;8.72;86.40;96390.03;4359398;32;20214;-69
2024/01/25 00:57:45;;;;;;;2.23;0.90;;;;;;;8.78;86.25;96399.59;4352085;32;20205;-69
2024/01/25 01:00:11;;;;;;;4.03;0.90;;;;;;;8.68;85.86;96396.09;4350905;32;20208;-69
2024/01/25 01:02:41;;;;;;;0.97;0.63;;;;;;;8.74;85.53;96406.44;4369890;32;20266;-69
2024/01/25 01:05:07;;;;;;;16.47;1.40;;;;;;;8.79;85.11;96403.81;4351427;32;20223;-69
2024/01/25 01:07:33;;;;;;;1.07;0.97;;;;;;;8.82;84.51;96436.91;4368418;32;20351;-69
2024/01/25 01:09:58;;;;;;;2.43;1.10;;;;;;;8.83;84.20;96407.56;4358546;32;20346;-69
2024/01/25 01:12:24;;;;;;;0.67;0.67;;;;;;;8.80;84.08;96418.66;4364963;32;20224;-70
2024/01/25 01:14:49;;;;;;;0.70;0.70;;;;;;;8.80;83.86;96429.22;4351522;32;20193;-70
2024/01/25 01:17:15;;;;;;;0.53;0.53;;;;;;;8.86;84.13;96436.16;4347997;32;20202;-69
2024/01/25 01:19:40;;;;;;;1.23;0.50;;;;;;;8.86;83.70;96438.81;4358333;32;20268;-69
2024/01/25 01:22:06;;;;;;;1.63;1.10;;;;;;;8.84;83.39;96450.69;4357781;32;20213;-69
2024/01/25 01:24:31;;;;;;;13.70;1.33;;;;;;;8.82;83.43;96452.78;4345131;32;20221;-69
2024/01/25 01:26:56;;;;;;;5.83;1.53;;;;;;;8.91;83.39;96446.00;4352514;32;20272;-70
2024/01/25 01:29:22;;;;;;;1.43;1.23;;;;;;;8.82;83.40;96444.84;4359511;32;20266;-70
2024/01/25 01:31:47;;;;;;;1.27;1.17;;;;;;;8.85;83.82;96453.09;4345923;32;22190;-70
2024/01/25 01:34:13;;;;;;;3.40;1.60;;;;;;;8.81;84.28;96452.00;4368180;32;20224;-70
2024/01/25 01:36:39;;;;;;;0.87;0.70;;;;;;;8.86;83.03;96449.37;4363644;32;20201;-69
2024/01/25 01:39:05;;;;;;;1.00;1.00;;;;;;;8.84;83.38;96451.50;4348726;32;20317;-69
2024/01/25 01:41:31;;;;;;;0.87;0.87;;;;;;;8.85;83.35;96447.78;4367168;32;20197;-69
2024/01/25 01:43:56;;;;;;;2.50;1.07;;;;;;;8.83;83.89;96439.31;4359087;32;20282;-70
2024/01/25 01:46:37;;;;;;;1.63;0.83;;;;;;;8.71;84.45;96430.78;4351334;32;20222;-69
2024/01/25 01:49:03;;;;;;;3.23;1.40;;;;;;;8.90;84.03;96418.72;4360394;32;20196;-68
2024/01/25 01:51:31;;;;;;;5.37;1.03;;;;;;;8.90;83.57;96434.59;4360600;32;20339;-68
2024/01/25 01:53:57;;;;;;;0.50;0.50;;;;;;;8.84;84.13;96427.69;4359729;32;20333;-69
2024/01/25 01:56:26;;;;;;;1.07;0.97;;;;;;;8.77;84.06;96429.72;4358992;32;20308;-69
2024/01/25 01:58:53;;;;;;;2.07;0.90;;;;;;;8.90;83.81;96434.59;4364234;32;20294;-70
2024/01/25 02:01:20;;;;;;;2.73;1.40;;;;;;;8.92;83.62;96424.56;4347706;32;20422;-70
2024/01/25 02:03:45;;;;;;;1.37;1.17;;;;;;;8.89;83.93;96426.91;4353263;32;20321;-69
2024/01/25 02:06:11;;;;;;;1.70;0.90;;;;;;;8.92;83.74;96421.91;4365630;32;20394;-70
2024/01/25 02:08:36;;;;;;;3.67;1.33;;;;;;;8.94;83.56;96419.78;4367312;32;20188;-69
2024/01/25 02:11:02;;;;;;;0.70;0.53;;;;;;;8.90;83.80;96431.97;4358220;32;20196;-71
2024/01/25 02:13:27;;;;;;;5.63;1.33;;;;;;;8.83;84.19;96430.56;4368934;32;20207;-69
2024/01/25 02:15:53;;;;;;;1.43;0.83;;;;;;;8.88;84.34;96418.19;4353369;32;20214;-69
2024/01/25 02:18:18;;;;;;;0.60;0.60;;;;;;;8.85;85.53;96415.25;4364195;32;20321;-69
2024/01/25 02:20:43;;;;;;;8.87;1.10;;;;;;;8.79;85.20;96418.91;4366353;32;20261;-69
2024/01/25 02:23:09;;;;;;;6.13;1.47;;;;;;;8.78;85.62;96417.31;4367094;32;20250;-69
2024/01/25 02:25:34;;;;;;;2.67;0.93;;;;;;;8.64;86.51;96414.31;4361915;32;20243;-69
2024/01/25 02:28:00;;;;;;;1.27;1.17;;;;;;;8.74;86.27;96417.00;4343799;32;20194;-69
2024/01/25 02:30:25;;;;;;;0.87;0.87;;;;;;;8.70;86.66;96418.59;4355531;32;20200;-69
2024/01/25 02:32:50;;;;;;;0.80;0.80;;;;;;;8.64;86.73;96422.25;4357630;32;20200;-69
2024/01/25 02:35:16;;;;;;;2.60;1.13;;;;;;;8.63;86.36;96418.00;4352112;32;20216;-69
2024/01/25 02:37:41;;;;;;;3.83;1.27;;;;;;;8.70;86.57;96415.94;4349937;32;20244;-69
2024/01/25 02:40:07;;;;;;;0.70;0.70;;;;;;;8.65;86.63;96415.91;4348534;32;20221;-69
2024/01/25 02:42:33;;;;;;;1.30;1.20;;;;;;;8.68;86.63;96410.09;4352285;32;20189;-69
2024/01/25 02:44:58;;;;;;;0.63;0.63;;;;;;;8.58;87.13;96413.47;4355998;32;20326;-61
2024/01/25 02:47:23;;;;;;;0.77;0.77;;;;;;;8.64;86.98;96409.00;4344789;32;20263;-70
2024/01/25 02:49:49;;;;;;;1.23;0.83;;;;;;;8.71;87.02;96400.88;4355480;32;20316;-70
2024/01/25 02:52:14;;;;;;;4.97;1.67;;;;;;;8.62;86.99;96400.53;4355338;32;20192;-70
2024/01/25 02:54:39;;;;;;;2.87;1.43;;;;;;;8.58;87.22;96399.44;4352064;32;20198;-69
2024/01/25 02:57:05;;;;;;;4.33;1.13;;;;;;;8.66;88.01;96396.34;4354381;32;20231;-69
2024/01/25 02:59:31;;;;;;;4.27;1.17;;;;;;;8.71;86.99;96409.59;4346111;32;20205;-70
2024/01/25 03:01:57;;;;;;;1.33;0.67;;;;;;;8.73;86.99;96409.34;4355689;32;20224;-70
2024/01/25 03:04:22;;;;;;;4.27;1.27;;;;;;;8.78;86.91;96410.16;4349501;32;20246;-70
2024/01/25 03:06:47;;;;;;;1.13;1.03;;;;;;;8.69;87.00;96411.72;4351479;32;20378;-68
2024/01/25 03:09:13;;;;;;;1.00;0.90;;;;;;;8.69;87.08;96389.75;4353509;32;20244;-69
2024/01/25 03:11:38;;;;;;;1.57;0.67;;;;;;;8.65;87.57;96405.31;4345762;32;20216;-68
2024/01/25 03:14:03;;;;;;;1.23;1.10;;;;;;;8.76;86.99;96411.47;4356054;32;20205;-68
2024/01/25 03:16:29;;;;;;;2.87;1.07;;;;;;;8.72;87.75;96405.91;4356498;32;20197;-68
2024/01/25 03:18:54;;;;;;;1.70;1.33;;;;;;;8.84;87.05;96403.87;4355616;32;20220;-70
2024/01/25 03:21:19;;;;;;;3.10;1.23;;;;;;;8.76;86.85;96406.97;4349530;32;20189;-69
2024/01/25 03:23:45;;;;;;;3.73;0.87;;;;;;;8.63;87.96;96404.78;4354356;32;20219;-69
2024/01/25 03:26:10;;;;;;;0.83;0.67;;;;;;;8.61;88.26;96393.66;4351540;32;20284;-69
2024/01/25 03:28:38;;;;;;;0.73;0.73;;;;;;;8.72;87.85;96383.94;4357655;32;20223;-68
2024/01/25 03:31:04;;;;;;;0.80;0.80;;;;;;;8.64;87.91;96376.47;4355193;32;20184;-68
2024/01/25 03:33:29;;;;;;;0.97;0.93;;;;;;;8.53;88.80;96372.94;4372415;32;20295;-68
2024/01/25 03:35:54;;;;;;;0.70;0.70;;;;;;;8.54;89.39;96375.34;4354681;32;20193;-69
2024/01/25 03:38:20;;;;;;;6.23;0.97;;;;;;;8.46;89.88;96370.53;4345817;32;20209;-68
2024/01/25 03:40:46;;;;;;;0.80;0.80;;;;;;;8.54;89.66;96375.34;4364285;32;20189;-68
2024/01/25 03:43:11;;;;;;;2.30;0.80;;;;;;;8.57;90.04;96366.09;4352710;32;20242;-68
2024/01/25 03:45:37;;;;;;;2.23;1.00;;;;;;;8.52;90.26;96379.31;4353492;32;20196;-68
2024/01/25 03:48:02;;;;;;;14.83;1.43;;;;;;;8.56;91.30;96385.66;4350875;32;20242;-68
2024/01/25 03:50:27;;;;;;;10.90;1.13;;;;;;;8.48;91.87;96376.38;4346504;32;20208;-68
2024/01/25 03:52:53;;;;;;;2.00;0.80;;;;;;;8.51;92.04;96383.81;4358382;32;20256;-68
2024/01/25 03:55:18;;;;;;;3.23;1.73;;;;;;;8.44;92.72;96377.12;4361657;32;20260;-70
2024/01/25 03:57:44;;;;;;;1.50;0.97;;;;;;;8.37;93.27;96381.81;4362560;32;20232;-68
2024/01/25 04:00:11;;;;;;;2.03;1.20;;;;;;;8.39;93.28;96385.81;4362130;32;20197;-68
2024/01/25 04:02:36;;;;;;;1.63;0.80;;;;;;;8.49;92.53;96390.41;4365377;32;20240;-69
2024/01/25 04:05:02;;;;;;;0.73;0.73;;;;;;;8.37;92.70;96395.84;4363976;32;20300;-69
2024/01/25 04:07:27;;;;;;;1.13;1.03;;;;;;;8.42;92.67;96384.53;4348427;32;20242;-69
2024/01/25 04:09:53;;;;;;;3.93;1.63;;;;;;;8.44;92.49;96385.06;4365303;32;20252;-68
2024/01/25 04:12:18;;;;;;;2.33;0.50;;;;;;;8.48;92.31;96402.03;4354684;32;20284;-68
2024/01/25 04:14:44;;;;;;;3.10;1.13;;;;;;;8.59;91.55;96404.47;4372492;32;20212;-68
2024/01/25 04:17:09;;;;;;;0.47;0.47;;;;;;;8.42;91.92;96389.81;4363433;32;20197;-68
2024/01/25 04:19:36;;;;;;;0.37;0.37;;;;;;;8.52;91.63;96405.75;4351043;32;20286;-70
2024/01/25 04:22:01;;;;;;;1.00;1.00;;;;;;;8.53;91.46;96399.41;4353446;32;20209;-68
2024/01/25 04:24:26;;;;;;;2.17;1.60;;;;;;;8.67;91.40;96402.44;4359006;32;20315;-70
2024/01/25 04:26:52;;;;;;;1.20;1.07;;;;;;;8.62;90.89;96405.81;4363258;32;20197;-69
2024/01/25 04:29:17;;;;;;;2.17;1.03;;;;;;;8.59;90.62;96416.91;4367436;32;20227;-71
2024/01/25 04:31:45;;;;;;;1.17;1.07;;;;;;;8.58;91.39;96412.66;4346004;32;20204;-69
2024/01/25 04:34:13;;;;;;;5.83;1.13;;;;;;;8.51;91.41;96422.69;4360832;32;20201;-68
2024/01/25 04:36:38;;;;;;;0.63;0.60;;;;;;;8.66;90.93;96432.56;4350154;32;20289;-68
2024/01/25 04:39:04;;;;;;;2.83;1.13;;;;;;;8.53;91.45;96429.28;4370549;32;20323;-68
2024/01/25 04:41:29;;;;;;;0.30;0.13;;;;;;;8.49;91.91;96438.00;4368389;32;20208;-68
2024/01/25 04:43:54;;;;;;;2.57;1.30;;;;;;;8.46;92.03;96427.91;4362700;32;20196;-69
2024/01/25 04:46:20;;;;;;;9.93;1.03;;;;;;;8.39;92.33;96432.59;4358526;32;20261;-68
2024/01/25 04:48:46;;;;;;;3.20;1.43;;;;;;;8.35;93.30;96428.88;4349443;32;20204;-68
2024/01/25 04:51:18;;;;;;;0.57;0.57;;;;;;;8.44;93.07;96430.81;4366336;32;20184;-70
2024/01/25 04:53:43;;;;;;;0.40;0.40;;;;;;;8.37;93.15;96432.84;4358004;32;20331;-68
2024/01/25 04:56:09;;;;;;;6.40;1.80;;;;;;;8.44;92.73;96440.59;4364853;32;20282;-68
2024/01/25 04:58:35;;;;;;;7.33;0.70;;;;;;;8.43;92.89;96439.78;4357355;32;20189;-68
2024/01/25 05:01:00;;;;;;;2.13;0.80;;;;;;;8.43;93.37;96439.00;4366255;32;20193;-68
2024/01/25 05:03:26;;;;;;;0.50;0.50;;;;;;;8.43;93.05;96446.94;4367198;32;20188;-69
2024/01/25 05:05:51;;;;;;;0.60;0.60;;;;;;;8.55;92.25;96464.22;4345918;32;20204;-68
2024/01/25 05:08:17;;;;;;;1.20;1.10;;;;;;;8.61;92.29;96459.78;4357571;32;20244;-70
2024/01/25 05:10:42;;;;;;;1.63;1.20;;;;;;;8.42;93.40;96454.06;4352028;32;20189;-69
2024/01/25 05:13:09;;;;;;;2.33;0.83;;;;;;;8.54;93.42;96459.19;4344135;32;20229;-68
2024/01/25 05:15:34;;;;;;;2.13;1.07;;;;;;;8.52;93.27;96454.13;4354181;32;20240;-68
2024/01/25 05:18:00;;;;;;;0.63;0.63;;;;;;;8.40;93.84;96466.72;4347099;32;20307;-71
2024/01/25 05:20:31;;;;;;;0.70;0.70;;;;;;;8.41;93.95;96462.25;4362361;32;20215;-69
2024/01/25 05:22:57;;;;;;;2.63;0.73;;;;;;;8.51;93.73;96470.28;4354644;32;20189;-68
2024/01/25 05:25:22;;;;;;;0.77;0.77;;;;;;;8.42;94.02;96475.22;4351602;32;20290;-69
2024/01/25 05:27:48;;;;;;;0.60;0.60;;;;;;;8.36;94.23;96483.34;4366034;32;20339;-68
2024/01/25 05:30:13;;;;;;;0.60;0.60;;;;;;;8.43;93.93;96474.16;4352268;32;20298;-68
2024/01/25 05:32:38;;;;;;;1.27;1.03;;;;;;;8.39;94.15;96477.56;4347654;32;20177;-68
2024/01/25 05:35:04;;;;;;;0.50;0.50;;;;;;;8.26;95.07;96473.44;4354664;32;20200;-68
2024/01/25 05:37:30;;;;;;;0.50;0.50;;;;;;;8.33;94.99;96482.00;4360217;32;20262;-68
2024/01/25 05:39:55;;;;;;;5.73;0.93;;;;;;;8.41;94.40;96483.41;4354631;32;20213;-68
2024/01/25 05:42:21;;;;;;;0.57;0.57;;;;;;;8.49;94.09;96467.09;4350212;32;20193;-68
2024/01/25 05:44:46;;;;;;;2.70;0.93;;;;;;;8.40;94.28;96474.66;4354577;32;20323;-69
2024/01/25 05:47:12;;;;;;;2.83;0.80;;;;;;;8.35;94.64;96485.19;4349741;32;20177;-68
2024/01/25 05:49:37;;;;;;;1.43;1.00;;;;;;;8.55;94.06;96480.09;4358457;32;20213;-68
2024/01/25 05:52:03;;;;;;;0.73;0.73;;;;;;;8.43;94.34;96483.94;4362898;32;20192;-68
2024/01/25 05:54:28;;;;;;;4.97;0.50;;;;;;;8.49;94.74;96496.16;4370586;32;20202;-70
2024/01/25 05:56:54;;;;;;;0.67;0.67;;;;;;;8.45;93.93;96508.28;4360633;32;20251;-69
2024/01/25 05:59:19;;;;;;;2.47;1.07;;;;;;;8.45;94.21;96505.66;4355861;32;20219;-70
2024/01/25 06:01:44;;;;;;;5.73;1.57;;;;;;;8.49;93.94;96510.19;4363575;32;20200;-70
2024/01/25 06:04:10;;;;;;;2.40;0.70;;;;;;;8.39;93.81;96510.09;4354408;32;20193;-69
2024/01/25 06:06:35;;;;;;;3.30;1.13;;;;;;;8.30;94.30;96508.13;4356722;32;20223;-69
2024/01/25 06:09:00;;;;;;;2.13;0.70;;;;;;;8.29;94.51;96507.31;4364345;32;20246;-68
2024/01/25 06:11:26;;;;;;;3.60;1.70;;;;;;;8.28;94.63;96514.44;4368991;32;20196;-69
2024/01/25 06:13:51;;;;;;;3.47;1.00;;;;;;;8.24;94.69;96510.69;4359905;32;20264;-69
2024/01/25 06:16:16;;;;;;;3.90;0.63;;;;;;;8.19;95.17;96529.16;4345238;32;20200;-69
2024/01/25 06:18:42;;;;;;;0.50;0.50;;;;;;;8.24;95.27;96539.78;4363892;32;20211;-68
2024/01/25 06:21:07;;;;;;;0.43;0.43;;;;;;;8.27;94.88;96527.91;4367375;32;20209;-68
2024/01/25 06:23:32;;;;;;;1.00;1.00;;;;;;;8.32;94.22;96532.44;4364599;32;20200;-68
2024/01/25 06:25:58;;;;;;;2.27;1.53;;;;;;;8.31;94.37;96536.94;4352387;32;20225;-70
2024/01/25 06:28:24;;;;;;;2.33;0.80;;;;;;;8.33;94.31;96539.34;4361845;32;20220;-70
2024/01/25 06:30:49;;;;;;;1.50;1.20;;;;;;;8.33;93.58;96560.50;4363164;32;20285;-68
2024/01/25 06:33:15;;;;;;;3.57;1.07;;;;;;;8.39;92.99;96564.81;4358946;32;20277;-70
2024/01/25 06:35:40;;;;;;;0.93;0.90;;;;;;;8.30;93.16;96571.56;4351465;32;20209;-68
2024/01/25 06:38:05;;;;;;;2.70;1.23;;;;;;;8.28;93.30;96564.69;4355865;32;20208;-68
2024/01/25 06:40:31;;;;;;;3.90;0.83;;;;;;;8.24;93.41;96574.16;4367727;32;20200;-68
2024/01/25 06:42:56;;;;;;;2.10;1.03;;;;;;;8.23;93.92;96577.03;4365089;32;20200;-70
2024/01/25 06:45:21;;;;;;;4.73;2.20;;;;;;;8.06;93.91;96571.03;4360640;32;20238;-72
2024/01/25 06:47:47;;;;;;;1.23;1.13;;;;;;;8.01;94.23;96570.94;4371473;32;20276;-70
2024/01/25 06:50:12;;;;;;;1.03;1.03;;;;;;;8.05;94.25;96572.88;4353022;32;20196;-68
2024/01/25 06:52:37;;;;;;;6.30;1.33;;;;;;;8.04;94.19;96579.19;4358072;32;20213;-68
2024/01/25 06:55:03;;;;;;;1.10;1.00;;;;;;;8.10;93.46;96585.34;4360521;32;20205;-68
2024/01/25 06:57:28;;;;;;;8.43;2.50;;;;;;;8.11;93.07;96590.34;4353925;32;20200;-55
2024/01/25 06:59:54;;;;;;;4.80;2.23;;;;;;;9.30;100.00;96587.63;4360399;32;20208;-57
2024/01/25 07:02:19;;;;;;;6.00;2.07;;;;;;;10.29;100.00;96600.13;4367076;32;20204;-65
2024/01/25 07:04:44;;;;;;;1.47;1.37;;;;;;;10.72;100.00;96600.81;4367036;32;20223;-69
2024/01/25 07:07:09;;;;;;;1.10;1.10;;;;;;;9.77;96.61;96604.63;4361071;32;20276;-69
2024/01/25 07:09:35;;;;;;;0.87;0.87;;;;;;;9.37;97.55;96607.78;4356274;32;20232;-69
2024/01/25 07:12:00;;;;;;;2.93;1.33;;;;;;;8.95;99.24;96611.91;4364326;32;20215;-69
2024/01/25 07:14:26;;;;;;;2.10;1.23;;;;;;;8.73;100.00;96619.09;4368962;32;20189;-70
2024/01/25 07:16:51;;;;;;;1.47;1.17;;;;;;;8.48;100.00;96613.56;4358135;32;20192;-71
2024/01/25 07:19:17;;;;;;;1.47;0.93;;;;;;;8.41;100.00;96620.88;4359851;32;20193;-69
2024/01/25 07:21:45;;;;;;;5.57;1.03;;;;;;;8.13;100.00;96616.53;4361528;32;20252;-69
2024/01/25 07:24:11;;;;;;;3.37;1.20;;;;;;;7.94;100.00;96619.47;4360735;32;20272;-69
2024/01/25 07:26:36;;;;;;;5.47;1.63;;;;;;;7.93;100.00;96625.00;4369960;32;20414;-69
2024/01/25 07:29:02;;;;;;;3.03;1.40;;;;;;;8.00;100.00;96638.06;4366759;32;20193;-69
2024/01/25 07:31:27;;;;;;;2.30;1.57;;;;;;;7.97;100.00;96630.59;4373314;32;20200;-70
2024/01/25 07:33:54;;;;;;;4.00;1.00;;;;;;;8.04;100.00;96637.31;4352250;32;20251;-71
2024/01/25 07:36:20;;;;;;;0.57;0.57;;;;;;;7.99;100.00;96637.25;4348489;32;20185;-72
2024/01/25 07:38:48;;;;;;;0.90;0.85;;;;;;;8.00;100.00;96648.63;4348196;32;20142;-71
2024/01/25 07:41:15;;;;;;;3.03;0.93;;;;;;;7.98;100.00;96643.56;4361549;32;20193;-70
2024/01/25 07:43:41;;;;;;;0.97;0.80;;;;;;;7.79;100.00;96650.97;4371113;32;20200;-69
2024/01/25 07:46:07;;;;;;;2.17;1.50;;;;;;;7.79;100.00;96655.47;4362176;32;20358;-71
2024/01/25 07:48:33;;;;;;;2.93;1.53;;;;;;;7.94;100.00;96656.47;4347951;32;20211;-69
2024/01/25 07:50:58;;;;;;;1.93;1.07;;;;;;;7.98;100.00;96659.44;4368238;32;20266;-69
2024/01/25 07:53:23;;;;;;;1.20;1.10;;;;;;;8.01;100.00;96666.88;4351746;32;20247;-70
2024/01/25 07:55:49;;;;;;;2.40;1.47;;;;;;;8.12;100.00;96663.31;4372017;32;20339;-70
2024/01/25 07:58:15;;;;;;;2.27;1.70;;;;;;;8.07;100.00;96673.03;4368924;32;20231;-70
2024/01/25 08:00:42;;;;;;;0.80;0.80;;;;;;;8.16;100.00;96669.72;4357574;32;20229;-71
2024/01/25 08:03:08;;;;;;;1.37;1.10;;;;;;;8.26;100.00;96666.41;4361107;32;20289;-70
2024/01/25 08:05:34;;;;;;;1.30;0.93;;;;;;;8.22;100.00;96668.75;4347759;32;20299;-69
2024/01/25 08:07:59;;;;;;;1.50;1.00;;;;;;;8.35;100.00;96666.81;4360902;32;20215;-68
2024/01/25 08:10:25;;;;;;;2.43;0.63;;;;;;;8.25;100.00;96686.78;4349719;32;20197;-69
2024/01/25 08:12:50;;;;;;;1.57;1.17;;;;;;;8.21;100.00;96669.00;4358604;32;20197;-69
2024/01/25 08:15:15;;;;;;;0.97;0.83;;;;;;;8.37;100.00;96662.06;4349648;32;20197;-69
2024/01/25 08:17:41;;;;;;;1.80;0.93;;;;;;;8.10;100.00;96668.06;4357722;32;20205;-70
2024/01/25 08:20:07;;;;;;;1.13;0.93;;;;;;;8.28;100.00;96683.63;4366997;32;20198;-71
2024/01/25 08:22:33;;;;;;;2.50;1.77;;;;;;;8.21;100.00;96679.56;4345931;32;20219;-72
2024/01/25 08:24:58;;;;;;;0.97;0.90;;;;;;;8.27;100.00;96663.53;4370873;32;20234;-72
2024/01/25 08:27:24;;;;;;;1.80;1.70;;;;;;;8.03;100.00;96670.06;4360915;32;20232;-75
2024/01/25 08:29:50;;;;;;;5.47;2.13;;;;;;;8.14;100.00;96665.72;4364230;32;20268;-72
2024/01/25 08:32:15;;;;;;;1.33;1.23;;;;;;;8.11;99.87;96663.56;4352282;32;20297;-73
2024/01/25 08:34:40;;;;;;;1.53;1.20;;;;;;;8.19;99.71;96666.59;4360286;32;20258;-72
2024/01/25 08:37:06;;;;;;;2.03;1.53;;;;;;;8.21;99.71;96666.34;4366058;32;20221;-72
2024/01/25 08:39:31;;;;;;;3.77;1.07;;;;;;;8.32;98.84;96668.09;4361077;32;20204;-72
2024/01/25 08:42:00;;;;;;;1.23;1.13;;;;;;;8.35;98.45;96674.75;4354965;32;20226;-73
2024/01/25 08:44:25;;;;;;;1.70;0.93;;;;;;;8.38;98.04;96661.03;4359724;32;20197;-73
2024/01/25 08:46:51;;;;;;;1.27;1.27;;;;;;;8.48;98.15;96654.03;4354963;32;20300;-74
2024/01/25 08:49:16;;;;;;;3.50;1.27;;;;;;;8.41;98.74;96663.19;4370632;32;20185;-73
2024/01/25 08:51:42;;;;;;;1.47;1.33;;;;;;;8.50;98.29;96667.81;4350511;32;20276;-72
2024/01/25 08:54:07;;;;;;;1.60;1.50;;;;;;;8.50;97.65;96673.09;4356906;32;20189;-73
2024/01/25 08:56:32;;;;;;;3.80;1.40;;;;;;;8.61;96.63;96684.59;4359388;32;20192;-73
2024/01/25 08:58:58;;;;;;;0.87;0.87;;;;;;;8.63;95.93;96677.22;4363270;32;20230;-74
2024/01/25 09:01:23;;;;;;;1.87;1.10;;;;;;;8.58;95.71;96685.06;4355008;32;20243;-72
2024/01/25 09:03:48;;;;;;;2.70;1.10;;;;;;;8.61;96.10;96685.37;4359047;32;20274;-73
2024/01/25 09:06:15;;;;;;;2.83;1.80;;;;;;;8.69;95.26;96686.81;4363750;32;20266;-72
2024/01/25 09:08:40;;;;;;;1.30;0.87;;;;;;;8.72;94.32;96696.09;4368083;32;20196;-72
2024/01/25 09:11:05;;;;;;;1.93;1.03;;;;;;;8.79;94.30;96699.34;4367275;32;20208;-58
2024/01/25 09:13:32;;;;;;;5.30;0.93;;;;;;;11.89;100.00;96688.56;4346988;32;20211;-59
2024/01/25 09:15:57;;;;;;;4.87;1.50;;;;;;;13.97;89.37;96683.03;4352364;32;20192;-59
2024/01/25 09:18:23;;;;;;;0.50;0.50;;;;;;;15.23;72.60;96680.03;4360085;32;20192;-60
2024/01/25 09:20:48;;;;;;;0.63;0.63;;;;;;;16.12;56.87;96688.03;4366398;32;20231;-59
2024/01/25 09:23:16;;;;;;;1.30;1.13;;;;;;;16.43;53.36;96693.59;4355678;32;20181;-59
2024/01/25 09:25:42;;;;;;;2.03;1.30;;;;;;;16.80;52.51;96687.31;4360471;32;20240;-58
2024/01/25 09:28:08;;;;;;;0.97;0.97;;;;;;;16.74;51.04;96709.94;4365861;32;20215;-59
2024/01/25 09:30:33;;;;;;;4.40;1.30;;;;;;;16.79;49.22;96709.84;4368710;32;20196;-59
2024/01/25 09:32:58;;;;;;;0.57;0.57;;;;;;;16.30;48.30;96721.19;4364134;32;20226;-58
2024/01/25 09:35:24;;;;;;;1.27;1.17;;;;;;;16.28;51.20;96708.09;4353788;32;20220;-58
2024/01/25 09:37:52;;;;;;;1.70;0.97;;;;;;;15.92;48.40;96725.84;4361924;32;20295;-58
2024/01/25 09:40:20;;;;;;;2.97;1.60;;;;;;;16.17;49.70;96727.31;4363737;32;20205;-58
2024/01/25 09:42:47;;;;;;;1.90;1.30;;;;;;;16.20;49.58;96729.41;4363732;32;20204;-59
2024/01/25 09:45:17;;;;;;;2.00;1.43;;;;;;;16.34;49.04;96728.34;4347270;32;20207;-59
2024/01/25 09:47:43;;;;;;;1.23;1.10;;;;;;;16.34;49.56;96722.97;4363085;32;20286;-58
2024/01/25 09:50:09;;;;;;;1.67;1.57;;;;;;;16.29;48.68;96717.69;4350559;32;20197;-58
2024/01/25 09:52:35;;;;;;;2.83;1.13;;;;;;;16.25;48.94;96730.09;4355518;32;20240;-58
2024/01/25 09:55:01;;;;;;;25.33;2.40;;;;;;;16.17;48.53;96722.75;4348092;32;20189;-58
2024/01/25 09:57:29;;;;;;;0.67;0.67;;;;;;;16.23;48.52;96716.19;4358846;32;20215;-71
2024/01/25 09:59:56;;;;;;;1.43;1.33;;;;;;;14.31;48.51;96719.59;4349922;32;20248;-71
2024/01/25 10:02:21;;;;;;;1.67;1.20;;;;;;;12.18;55.06;96726.84;4364036;32;20193;-70
2024/01/25 10:04:53;;;;;;;3.03;1.77;;;;;;;11.50;59.08;96738.78;4359922;32;20208;-70
2024/01/25 10:07:41;;;;;;;1.27;1.07;;;;;;;10.82;62.62;96736.19;4346670;32;20228;-70
2024/01/25 10:10:08;;;;;;;1.13;1.03;;;;;;;10.35;65.60;96741.53;4364698;32;20201;-68
2024/01/25 10:12:33;;;;;;;5.00;1.47;;;;;;;10.08;67.69;96738.16;4365983;32;20205;-69
2024/01/25 10:14:59;;;;;;;2.10;1.00;;;;;;;10.18;67.97;96733.72;4371146;32;20212;-70
2024/01/25 10:17:24;;;;;;;4.27;1.70;;;;;;;10.08;68.62;96744.25;4365649;32;20317;-69
2024/01/25 10:19:50;;;;;;;0.97;0.97;;;;;;;10.02;66.08;96734.66;4360078;32;20272;-69
2024/01/25 10:22:16;;;;;;;8.33;1.33;;;;;;;9.64;68.53;96741.78;4359056;32;20205;-70
2024/01/25 10:24:41;;;;;;;2.43;1.07;;;;;;;9.67;68.01;96735.19;4352835;32;20200;-69
2024/01/25 10:27:07;;;;;;;2.23;0.83;;;;;;;9.76;68.29;96732.88;4354248;32;20205;-70
2024/01/25 10:29:34;;;;;;;1.03;1.03;;;;;;;9.78;67.12;96725.44;4358051;32;20250;-70
2024/01/25 10:32:02;;;;;;;2.30;1.77;;;;;;;9.41;67.74;96726.19;4366497;32;20193;-73
2024/01/25 10:34:29;;;;;;;8.90;2.10;;;;;;;9.48;68.99;96724.16;4369949;32;20188;-72
2024/01/25 10:36:55;;;;;;;2.27;1.50;;;;;;;9.60;67.89;96714.19;4367880;32;20192;-70
2024/01/25 10:39:21;;;;;;;3.10;2.03;;;;;;;9.34;68.72;96712.38;4354353;32;20288;-69
2024/01/25 10:41:50;;;;;;;10.83;1.77;;;;;;;9.30;69.15;96708.63;4351344;32;20198;-70
2024/01/25 10:44:19;;;;;;;4.97;1.13;;;;;;;9.33;68.64;96710.78;4373028;32;20636;-69
2024/01/25 10:46:47;;;;;;;1.40;1.10;;;;;;;9.19;69.94;96701.63;4368149;32;20196;-69
2024/01/25 10:49:13;;;;;;;1.63;1.53;;;;;;;9.53;69.16;96703.00;4361226;32;20192;-71
2024/01/25 10:51:40;;;;;;;3.07;1.07;;;;;;;9.41;69.45;96702.38;4365006;32;20206;-70
2024/01/25 10:54:11;;;;;;;3.50;1.87;;;;;;;9.49;68.58;96701.91;4362316;32;20201;-69
2024/01/25 10:56:37;;;;;;;1.57;1.47;;;;;;;9.72;69.40;96694.69;4347411;32;20180;-71
2024/01/25 10:59:03;;;;;;;8.13;1.40;;;;;;;9.56;68.27;96697.19;4360460;32;20230;-68
2024/01/25 11:01:28;;;;;;;1.67;0.97;;;;;;;9.71;68.60;96688.59;4369534;32;20184;-70
2024/01/25 11:03:54;;;;;;;1.50;1.40;;;;;;;9.61;69.91;96678.69;4351918;32;20204;-69
2024/01/25 11:06:24;;;;;;;3.47;1.67;;;;;;;9.60;69.61;96682.38;4361234;32;20224;-69
2024/01/25 11:08:49;;;;;;;3.33;1.53;;;;;;;9.74;68.60;96672.19;4361228;32;20227;-68
2024/01/25 11:11:15;;;;;;;1.37;0.97;;;;;;;10.07;68.66;96671.06;4370340;32;20236;-68
2024/01/25 11:13:42;;;;;;;2.27;1.53;;;;;;;9.98;66.90;96665.44;4361248;32;20305;-68
2024/01/25 11:16:18;;;;;;;2.67;1.20;;;;;;;9.57;67.48;96664.34;4354246;32;20268;-69
2024/01/25 11:18:51;;;;;;;1.73;1.57;;;;;;;9.63;67.91;96666.00;4359627;32;20250;-69
2024/01/25 11:21:42;;;;;;;1.60;1.50;;;;;;;9.71;67.12;96658.62;4368908;32;20196;-69
2024/01/25 11:24:19;;;;;;;3.03;1.60;;;;;;;9.63;68.50;96651.94;4351490;32;20278;-70
2024/01/25 11:26:46;;;;;;;4.67;1.70;;;;;;;9.53;68.66;96657.97;4366622;32;20227;-69
2024/01/25 11:29:18;;;;;;;10.70;2.70;;;;;;;9.54;68.86;96648.19;4360944;32;20197;-69
2024/01/25 11:31:45;;;;;;;2.70;1.03;;;;;;;9.50;70.35;96645.25;4345350;32;20213;-69
2024/01/25 11:34:12;;;;;;;0.93;0.93;;;;;;;9.64;70.23;96645.59;4361602;32;20192;-69